Time;durP1;ratioP1;P1;durP2;ratioP2;P2;SDS_P1;SDS_P2;PMS_P1;PMS_P2;Temp;Humidity;BMP_temperature;BMP_pressure;BME280_temperature;BME280_humidity;BME280_pressure;Samples;Min_cycle;Max_cycle;Signal;HPM_P1;HPM_P2
2023/05/24 00:01:36;;;;;;;27.95;5.40;;;9.00;99.90;;;;;;5049717;28;20087;-67
2023/05/24 00:04:02;;;;;;;29.42;5.45;;;9.10;99.90;;;;;;5049009;28;20317;-65
2023/05/24 00:06:29;;;;;;;29.73;5.45;;;9.10;99.90;;;;;;5049619;28;20116;-67
2023/05/24 00:08:54;;;;;;;32.58;5.15;;;9.10;99.90;;;;;;5047472;28;20052;-66
2023/05/24 00:11:23;;;;;;;30.40;5.32;;;9.00;99.90;;;;;;5081308;28;20044;-66
2023/05/24 00:13:50;;;;;;;32.40;5.03;;;9.00;99.90;;;;;;5048855;28;20033;-65
2023/05/24 00:16:36;;;;;;;27.80;5.13;;;9.00;99.90;;;;;;5047886;28;20075;-65
2023/05/24 00:19:02;;;;;;;37.42;6.85;;;9.00;99.90;;;;;;5047402;28;20142;-66
2023/05/24 00:21:28;;;;;;;25.15;4.55;;;9.00;99.90;;;;;;5064385;28;20131;-66
2023/05/24 00:23:53;;;;;;;27.48;5.03;;;9.00;99.90;;;;;;5047148;28;20111;-65
2023/05/24 00:26:20;;;;;;;26.17;4.53;;;9.00;99.90;;;;;;5047934;28;20044;-65
2023/05/24 00:28:45;;;;;;;29.02;5.00;;;9.10;99.90;;;;;;5047330;28;20108;-65
2023/05/24 00:31:11;;;;;;;28.48;5.07;;;9.10;99.90;;;;;;5048706;28;20116;-66
2023/05/24 00:33:37;;;;;;;24.83;4.50;;;9.00;99.90;;;;;;5047519;28;20474;-66
2023/05/24 00:36:05;;;;;;;29.88;4.93;;;9.00;99.90;;;;;;5081102;28;20036;-65
2023/05/24 00:38:30;;;;;;;28.55;4.47;;;8.90;99.90;;;;;;5080555;28;20422;-65
2023/05/24 00:40:56;;;;;;;31.05;4.97;;;8.90;99.90;;;;;;5065055;28;20106;-65
2023/05/24 00:43:22;;;;;;;23.70;4.68;;;9.00;99.90;;;;;;5065083;28;20095;-65
2023/05/24 00:46:19;;;;;;;24.40;4.03;;;9.00;99.90;;;;;;5049419;28;20765;-65
2023/05/24 00:48:45;;;;;;;21.42;4.45;;;9.00;99.90;;;;;;5048911;28;20049;-65
2023/05/24 00:51:12;;;;;;;27.50;4.65;;;9.10;99.90;;;;;;5047005;28;20111;-66
2023/05/24 00:53:40;;;;;;;31.02;4.75;;;9.20;99.90;;;;;;5082624;28;20592;-67
2023/05/24 00:56:07;;;;;;;27.13;4.25;;;9.10;99.90;;;;;;5081190;28;20072;-65
2023/05/24 00:58:32;;;;;;;25.25;4.65;;;9.20;99.90;;;;;;5048993;28;20483;-65
2023/05/24 01:01:00;;;;;;;27.25;4.90;;;9.20;99.90;;;;;;5047519;28;21187;-65
2023/05/24 01:03:29;;;;;;;25.52;4.72;;;9.30;99.90;;;;;;5057071;28;20041;-65
2023/05/24 01:05:57;;;;;;;22.80;4.40;;;9.40;99.90;;;;;;5048717;28;20045;-65
2023/05/24 01:08:39;;;;;;;24.30;3.78;;;9.50;99.90;;;;;;5068316;28;20044;-66
2023/05/24 01:11:25;;;;;;;28.88;4.05;;;9.60;99.90;;;;;;5046184;28;20040;-65
2023/05/24 01:14:15;;;;;;;22.83;4.07;;;9.70;99.90;;;;;;5046795;28;20098;-66
2023/05/24 01:16:50;;;;;;;23.45;4.15;;;9.60;99.90;;;;;;5079773;28;20049;-65
2023/05/24 01:19:47;;;;;;;20.75;3.70;;;9.70;99.90;;;;;;5078664;28;20048;-65
2023/05/24 01:22:15;;;;;;;26.73;4.53;;;9.80;99.90;;;;;;5064067;28;20071;-65
2023/05/24 01:25:06;;;;;;;22.10;4.03;;;10.00;99.90;;;;;;5078979;28;20121;-66
2023/05/24 01:27:35;;;;;;;25.48;4.50;;;10.10;99.90;;;;;;5031761;28;20028;-65
2023/05/24 01:30:03;;;;;;;19.75;3.65;;;10.10;99.90;;;;;;5056906;28;20041;-66
2023/05/24 01:32:29;;;;;;;23.38;3.65;;;10.10;99.90;;;;;;5080360;28;20650;-66
2023/05/24 01:34:55;;;;;;;20.08;3.78;;;10.10;99.90;;;;;;5049596;28;20135;-65
2023/05/24 01:37:20;;;;;;;19.98;3.92;;;10.10;99.90;;;;;;5080428;28;20135;-65
2023/05/24 01:39:47;;;;;;;23.77;3.90;;;10.10;99.90;;;;;;5046437;28;20055;-65
2023/05/24 01:42:34;;;;;;;25.02;4.20;;;10.10;99.90;;;;;;5063555;28;20148;-65
2023/05/24 01:45:24;;;;;;;20.02;3.22;;;10.10;99.90;;;;;;5063089;28;20094;-65
2023/05/24 01:48:21;;;;;;;21.23;3.60;;;10.10;99.90;;;;;;5046812;28;20033;-66
2023/05/24 01:50:58;;;;;;;23.00;3.97;;;10.00;99.90;;;;;;5062132;28;20091;-65
2023/05/24 01:53:33;;;;;;;20.35;3.67;;;10.10;99.90;;;;;;5079422;28;20051;-66
2023/05/24 01:56:01;;;;;;;26.65;3.80;;;10.10;99.90;;;;;;5046342;28;20059;-66
2023/05/24 01:58:30;;;;;;;28.60;4.70;;;10.10;99.90;;;;;;5046749;28;20048;-65
2023/05/24 02:00:56;;;;;;;22.50;3.78;;;10.10;99.90;;;;;;5081564;28;20038;-66
2023/05/24 02:03:22;;;;;;;24.50;4.07;;;10.10;99.90;;;;;;5078830;28;20403;-65
2023/05/24 02:05:48;;;;;;;21.92;3.60;;;10.10;99.90;;;;;;5044451;28;20051;-65
2023/05/24 02:08:13;;;;;;;23.15;3.70;;;10.10;99.90;;;;;;5056658;28;20056;-66
2023/05/24 02:10:40;;;;;;;19.55;3.50;;;10.20;99.90;;;;;;5045674;28;20167;-66
2023/05/24 02:13:06;;;;;;;21.98;3.72;;;10.20;99.90;;;;;;5061901;28;20045;-66
2023/05/24 02:15:37;;;;;;;26.42;4.38;;;10.20;99.90;;;;;;5080178;28;20045;-66
2023/05/24 02:18:03;;;;;;;21.35;3.67;;;10.20;99.90;;;;;;5046088;28;20283;-65
2023/05/24 02:20:29;;;;;;;20.52;3.60;;;10.20;99.90;;;;;;5065400;28;20852;-66
2023/05/24 02:22:56;;;;;;;23.02;3.45;;;10.20;99.90;;;;;;5080558;28;20044;-66
2023/05/24 02:25:22;;;;;;;27.65;4.43;;;10.20;99.90;;;;;;5080550;28;20091;-65
2023/05/24 02:27:48;;;;;;;26.58;3.88;;;10.20;99.90;;;;;;5045110;28;20060;-66
2023/05/24 02:30:13;;;;;;;23.38;4.80;;;10.30;99.90;;;;;;5061929;28;20075;-66
2023/05/24 02:32:39;;;;;;;27.33;4.28;;;10.20;99.90;;;;;;5047871;28;20072;-67
2023/05/24 02:35:06;;;;;;;28.48;4.40;;;10.20;99.90;;;;;;5046693;28;20514;-65
2023/05/24 02:37:32;;;;;;;23.48;3.70;;;10.20;99.90;;;;;;5047806;28;20084;-66
2023/05/24 02:39:57;;;;;;;22.35;4.13;;;10.20;99.90;;;;;;5045092;28;20145;-66
2023/05/24 02:42:23;;;;;;;23.20;3.60;;;10.20;99.90;;;;;;5047040;28;20053;-66
2023/05/24 02:44:51;;;;;;;29.45;4.22;;;10.10;99.90;;;;;;5063080;28;20082;-66
2023/05/24 02:47:17;;;;;;;23.42;4.25;;;10.20;99.90;;;;;;5065006;28;20498;-67
2023/05/24 02:49:43;;;;;;;24.98;3.60;;;10.20;99.90;;;;;;5047666;28;20044;-65
2023/05/24 02:52:09;;;;;;;24.98;3.65;;;10.20;99.90;;;;;;5063496;28;20080;-65
2023/05/24 02:54:35;;;;;;;25.13;4.07;;;10.20;99.90;;;;;;5045547;28;20048;-66
2023/05/24 02:57:01;;;;;;;25.83;4.72;;;10.10;99.90;;;;;;5047370;28;20045;-65
2023/05/24 02:59:27;;;;;;;19.55;3.75;;;10.10;99.90;;;;;;5062380;28;20036;-66
2023/05/24 03:01:53;;;;;;;21.33;3.72;;;10.10;99.90;;;;;;5030499;28;20097;-65
2023/05/24 03:04:19;;;;;;;22.00;3.85;;;10.10;99.90;;;;;;5080677;28;20044;-66
2023/05/24 03:06:46;;;;;;;22.05;3.67;;;10.10;99.90;;;;;;5046980;28;20045;-65
2023/05/24 03:09:11;;;;;;;24.27;3.90;;;10.10;99.90;;;;;;5062580;28;20048;-66
2023/05/24 03:15:12;;;;;;;25.17;3.85;;;10.00;99.90;;;;;;5084465;28;20162;-66
2023/05/24 03:17:38;;;;;;;24.65;3.45;;;10.00;99.90;;;;;;5069636;28;20127;-66
2023/05/24 03:20:04;;;;;;;19.35;3.60;;;10.00;99.90;;;;;;5066162;28;20040;-65
2023/05/24 03:22:30;;;;;;;22.23;3.80;;;10.10;99.90;;;;;;5084072;28;20459;-64
2023/05/24 03:24:57;;;;;;;22.25;3.78;;;10.10;99.90;;;;;;5065916;28;20037;-66
2023/05/24 03:27:22;;;;;;;23.60;4.45;;;10.10;99.90;;;;;;5072319;28;20701;-66
2023/05/24 03:29:48;;;;;;;21.95;3.63;;;10.10;99.90;;;;;;5069766;28;20047;-66
2023/05/24 03:32:14;;;;;;;25.75;4.03;;;10.10;99.90;;;;;;5067820;28;20049;-65
2023/05/24 03:34:39;;;;;;;22.77;3.88;;;10.10;99.90;;;;;;5050273;28;20037;-66
2023/05/24 03:37:05;;;;;;;23.83;4.40;;;10.10;99.90;;;;;;5049369;28;20391;-65
2023/05/24 03:39:31;;;;;;;30.48;4.30;;;10.10;99.90;;;;;;5068634;28;20476;-65
2023/05/24 03:41:56;;;;;;;23.13;3.92;;;10.10;99.90;;;;;;5047933;28;21340;-66
2023/05/24 03:44:22;;;;;;;20.52;3.28;;;10.20;99.90;;;;;;5033871;28;20479;-65
2023/05/24 03:46:48;;;;;;;25.55;4.35;;;10.30;99.90;;;;;;5082598;28;20055;-67
2023/05/24 03:49:14;;;;;;;24.33;4.00;;;10.30;99.90;;;;;;5050507;28;20396;-65
2023/05/24 03:51:39;;;;;;;27.00;4.30;;;10.20;99.90;;;;;;5070837;28;20079;-65
2023/05/24 03:54:05;;;;;;;24.38;4.28;;;10.30;99.90;;;;;;5050657;28;20068;-66
2023/05/24 03:56:30;;;;;;;25.27;3.78;;;10.30;99.90;;;;;;5066848;28;20045;-66
2023/05/24 03:58:59;;;;;;;24.17;3.70;;;10.30;99.90;;;;;;5048894;28;20040;-68
2023/05/24 04:01:25;;;;;;;25.13;4.35;;;10.30;99.90;;;;;;5049763;28;20055;-65
2023/05/24 04:03:51;;;;;;;27.90;4.28;;;10.30;99.90;;;;;;5049178;28;20040;-65
2023/05/24 04:06:17;;;;;;;25.20;4.53;;;10.30;99.90;;;;;;5052828;28;21245;-66
2023/05/24 04:08:43;;;;;;;25.23;4.05;;;10.30;99.90;;;;;;5064807;28;20045;-65
2023/05/24 04:11:08;;;;;;;21.33;4.60;;;10.30;99.90;;;;;;5064644;28;20049;-66
2023/05/24 04:13:34;;;;;;;24.05;3.95;;;10.30;99.90;;;;;;5050203;28;20051;-66
2023/05/24 04:16:00;;;;;;;28.20;4.75;;;10.30;99.90;;;;;;5081950;28;20041;-65
2023/05/24 04:18:26;;;;;;;25.20;4.25;;;10.30;99.90;;;;;;5066600;28;20226;-66
2023/05/24 04:20:52;;;;;;;24.75;4.43;;;10.30;99.90;;;;;;5065439;28;20119;-68
2023/05/24 04:23:17;;;;;;;28.48;4.72;;;10.30;99.90;;;;;;5063717;28;20083;-65
2023/05/24 04:25:44;;;;;;;26.90;4.28;;;10.30;99.90;;;;;;5065371;28;20035;-66
2023/05/24 04:28:09;;;;;;;25.42;3.92;;;10.30;99.90;;;;;;5069024;28;20522;-65
2023/05/24 04:30:35;;;;;;;22.35;4.55;;;10.30;99.90;;;;;;5047985;28;20040;-65
2023/05/24 04:33:02;;;;;;;27.33;4.88;;;10.40;99.90;;;;;;5068769;28;20051;-64
2023/05/24 04:35:29;;;;;;;25.42;3.95;;;10.40;99.90;;;;;;5066273;28;20048;-65
2023/05/24 04:37:54;;;;;;;23.48;4.15;;;10.50;99.90;;;;;;5066664;28;20076;-64
2023/05/24 04:40:21;;;;;;;27.05;4.50;;;10.60;99.90;;;;;;5048464;28;20041;-65
2023/05/24 04:42:47;;;;;;;22.35;3.75;;;10.70;99.90;;;;;;5049477;28;20406;-65
2023/05/24 04:45:13;;;;;;;23.90;4.32;;;10.70;99.90;;;;;;5068466;28;20974;-66
2023/05/24 04:47:41;;;;;;;20.58;3.30;;;10.80;99.90;;;;;;5048963;28;20045;-65
2023/05/24 04:50:07;;;;;;;17.85;3.20;;;10.80;99.90;;;;;;5047651;28;20124;-65
2023/05/24 04:52:35;;;;;;;18.55;3.63;;;10.90;99.90;;;;;;5046764;28;20498;-66
2023/05/24 04:55:02;;;;;;;20.70;3.60;;;11.00;99.90;;;;;;5068771;28;20036;-65
2023/05/24 04:57:28;;;;;;;19.77;3.55;;;11.10;99.90;;;;;;5042086;28;20045;-65
2023/05/24 04:59:53;;;;;;;20.08;4.00;;;11.10;90.90;;;;;;5064577;28;20095;-67
2023/05/24 05:02:20;;;;;;;19.30;3.10;;;11.10;99.90;;;;;;5064665;28;20060;-65
2023/05/24 05:04:46;;;;;;;20.85;3.72;;;11.10;99.90;;;;;;5049190;28;20370;-66
2023/05/24 05:07:11;;;;;;;25.88;4.05;;;11.20;99.90;;;;;;5065042;28;20033;-66
2023/05/24 05:09:37;;;;;;;25.17;4.03;;;11.20;99.90;;;;;;5047387;28;20424;-66
2023/05/24 05:12:03;;;;;;;21.00;3.63;;;11.20;99.90;;;;;;5063422;28;20043;-68
2023/05/24 05:14:28;;;;;;;22.77;3.17;;;11.20;99.90;;;;;;5029812;28;20064;-66
2023/05/24 05:16:54;;;;;;;24.80;3.80;;;11.20;99.90;;;;;;5080146;28;20095;-66
2023/05/24 05:19:20;;;;;;;23.05;3.70;;;11.20;99.90;;;;;;5065087;28;20102;-66
2023/05/24 05:21:46;;;;;;;20.50;3.75;;;11.20;99.90;;;;;;5064015;28;20127;-68
2023/05/24 05:24:12;;;;;;;20.95;3.83;;;11.20;99.90;;;;;;5046615;28;20068;-65
2023/05/24 05:26:37;;;;;;;27.85;3.95;;;11.20;99.90;;;;;;5048569;28;20399;-65
2023/05/24 05:29:03;;;;;;;22.25;3.80;;;11.20;99.90;;;;;;5080076;28;20029;-66
2023/05/24 05:31:29;;;;;;;26.80;3.85;;;11.30;99.90;;;;;;5047666;28;20040;-65
2023/05/24 05:33:55;;;;;;;24.65;3.90;;;11.30;99.90;;;;;;5047054;28;20033;-66
2023/05/24 05:36:21;;;;;;;16.75;2.63;;;11.30;99.90;;;;;;5064620;28;20052;-65
2023/05/24 05:38:46;;;;;;;24.40;3.80;;;11.30;99.90;;;;;;5060888;28;20114;-66
2023/05/24 05:41:12;;;;;;;24.33;3.95;;;11.40;99.90;;;;;;5049297;28;20110;-66
2023/05/24 05:43:38;;;;;;;23.20;3.67;;;11.40;99.90;;;;;;5064300;28;20057;-65
2023/05/24 05:46:04;;;;;;;24.48;3.50;;;11.50;99.90;;;;;;5064473;28;20045;-65
2023/05/24 05:48:29;;;;;;;23.95;3.70;;;11.50;99.90;;;;;;5065333;28;20043;-66
2023/05/24 05:50:55;;;;;;;20.60;3.63;;;11.50;99.90;;;;;;5063628;28;20033;-67
2023/05/24 05:53:21;;;;;;;18.60;3.40;;;11.50;99.90;;;;;;5063891;28;20052;-65
2023/05/24 05:55:46;;;;;;;20.67;3.65;;;11.50;99.90;;;;;;5065027;28;20051;-65
2023/05/24 05:58:12;;;;;;;19.50;3.95;;;11.60;99.90;;;;;;5067863;28;20068;-65
2023/05/24 06:00:39;;;;;;;19.85;3.17;;;11.60;99.90;;;;;;5062963;28;20658;-64
2023/05/24 06:03:05;;;;;;;20.35;3.90;;;11.60;99.90;;;;;;5062495;28;20131;-66
2023/05/24 06:05:30;;;;;;;18.73;3.15;;;11.70;99.90;;;;;;5046765;28;20450;-65
2023/05/24 06:07:56;;;;;;;21.77;3.80;;;11.90;99.90;;;;;;5063846;28;20390;-65
2023/05/24 06:10:22;;;;;;;14.05;2.72;;;11.90;99.90;;;;;;5067342;28;20029;-65
2023/05/24 06:12:47;;;;;;;21.70;3.75;;;12.00;99.90;;;;;;5046671;28;20179;-65
2023/05/24 06:15:13;;;;;;;18.60;3.05;;;11.90;95.10;;;;;;5048832;28;20611;-68
2023/05/24 06:17:42;;;;;;;22.45;3.20;;;12.00;99.90;;;;;;5065180;28;20070;-65
2023/05/24 06:20:10;;;;;;;18.23;3.22;;;11.80;99.90;;;;;;5048305;28;20043;-64
2023/05/24 06:22:37;;;;;;;23.20;3.50;;;11.80;99.90;;;;;;5064204;28;20503;-65
2023/05/24 06:25:04;;;;;;;23.08;3.92;;;11.70;99.90;;;;;;5064215;28;20047;-65
2023/05/24 06:27:29;;;;;;;16.73;2.95;;;11.80;99.90;;;;;;5079792;28;20048;-64
2023/05/24 06:29:55;;;;;;;18.35;3.25;;;12.00;99.90;;;;;;5055219;28;20110;-66
2023/05/24 06:32:21;;;;;;;17.30;2.92;;;12.10;99.90;;;;;;5033839;28;20037;-66
2023/05/24 06:34:46;;;;;;;15.15;2.80;;;12.10;99.90;;;;;;5032092;28;20497;-66
2023/05/24 06:37:14;;;;;;;15.75;3.00;;;12.00;99.90;;;;;;5068094;28;20109;-66
2023/05/24 06:39:40;;;;;;;17.65;2.78;;;12.00;99.90;;;;;;5058804;28;20047;-66
2023/05/24 06:42:06;;;;;;;22.50;3.30;;;12.10;99.90;;;;;;5015343;28;20045;-66
2023/05/24 06:44:33;;;;;;;18.23;3.20;;;12.20;99.90;;;;;;5014507;28;20687;-66
2023/05/24 06:47:02;;;;;;;18.48;3.08;;;12.30;99.90;;;;;;5067316;28;20351;-66
2023/05/24 06:49:28;;;;;;;14.57;3.28;;;12.30;99.90;;;;;;5067553;28;20044;-66
2023/05/24 06:51:54;;;;;;;15.13;2.67;;;12.30;99.90;;;;;;5034841;28;20044;-66
2023/05/24 06:54:20;;;;;;;16.40;2.50;;;12.20;99.90;;;;;;5050236;28;20045;-66
2023/05/24 06:56:46;;;;;;;21.92;3.22;;;12.30;99.90;;;;;;5019057;28;20389;-66
2023/05/24 06:59:12;;;;;;;13.73;2.40;;;12.30;99.90;;;;;;5045616;28;20488;-66
2023/05/24 07:01:38;;;;;;;16.58;2.67;;;12.40;99.90;;;;;;5052680;28;20495;-66
2023/05/24 07:04:05;;;;;;;13.85;2.28;;;12.40;69.80;;;;;;5067838;28;20067;-67
2023/05/24 07:06:33;;;;;;;13.32;2.80;;;12.50;84.10;;;;;;5034319;28;20437;-66
2023/05/24 07:09:00;;;;;;;13.75;2.47;;;12.40;64.50;;;;;;5050010;28;20033;-66
2023/05/24 07:11:27;;;;;;;13.75;2.55;;;12.70;66.60;;;;;;5034671;28;20051;-66
2023/05/24 07:13:52;;;;;;;13.05;2.53;;;12.70;1.00;;;;;;5035078;28;20264;-66
2023/05/24 07:16:18;;;;;;;15.77;2.28;;;12.80;1.00;;;;;;5033564;28;20044;-66
2023/05/24 07:18:44;;;;;;;12.85;2.13;;;12.90;1.00;;;;;;5034421;28;20151;-66
2023/05/24 07:21:09;;;;;;;14.57;2.22;;;13.10;1.00;;;;;;5068012;28;20132;-66
2023/05/24 07:23:36;;;;;;;17.92;2.70;;;13.20;1.00;;;;;;5050072;28;20045;-66
2023/05/24 07:26:03;;;;;;;13.88;2.65;;;13.20;1.00;;;;;;5033771;28;20041;-66
2023/05/24 07:28:29;;;;;;;14.55;2.65;;;13.40;1.00;;;;;;5067478;28;20049;-66
2023/05/24 07:30:55;;;;;;;13.07;2.40;;;13.30;1.00;;;;;;5068229;28;20093;-66
2023/05/24 07:33:20;;;;;;;12.15;2.45;;;13.60;1.00;;;;;;5035779;28;20044;-66
2023/05/24 07:35:50;;;;;;;17.00;2.40;;;13.90;1.00;;;;;;5050811;28;20087;-66
2023/05/24 07:38:17;;;;;;;12.65;2.13;;;14.40;1.00;;;;;;5034692;28;20083;-66
2023/05/24 07:40:43;;;;;;;16.95;2.30;;;15.00;1.00;;;;;;5037017;28;20045;-66
2023/05/24 07:43:08;;;;;;;17.13;2.55;;;15.40;1.00;;;;;;5037846;28;20059;-67
2023/05/24 07:45:34;;;;;;;13.40;2.30;;;15.70;99.90;;;;;;5054322;28;20049;-67
2023/05/24 07:48:00;;;;;;;11.75;2.47;;;16.10;99.90;;;;;;5034884;28;20175;-67
2023/05/24 07:50:26;;;;;;;10.90;2.22;;;16.10;99.90;;;;;;5067704;28;20149;-66
2023/05/24 07:52:53;;;;;;;13.90;2.45;;;16.20;99.90;;;;;;5051064;28;20044;-66
2023/05/24 07:55:19;;;;;;;17.65;2.33;;;16.70;99.90;;;;;;5049746;28;20154;-66
2023/05/24 07:57:45;;;;;;;16.80;2.65;;;17.00;99.90;;;;;;5034582;28;20036;-66
2023/05/24 08:00:13;;;;;;;11.88;2.53;;;16.10;3.30;;;;;;5067504;28;20076;-66
2023/05/24 08:02:42;;;;;;;12.98;2.38;;;16.60;99.90;;;;;;5034475;28;20041;-67
2023/05/24 08:05:13;;;;;;;12.20;2.20;;;17.00;99.90;;;;;;5066369;28;20059;-66
2023/05/24 08:07:40;;;;;;;11.02;2.42;;;17.30;96.60;;;;;;5067663;28;20120;-67
2023/05/24 08:10:08;;;;;;;13.70;2.42;;;17.70;1.00;;;;;;5036690;28;20411;-67
2023/05/24 08:12:34;;;;;;;12.38;2.15;;;17.60;1.00;;;;;;5017807;28;20063;-67
2023/05/24 08:14:59;;;;;;;9.55;1.80;;;17.50;1.00;;;;;;5032760;28;20293;-67
2023/05/24 08:17:26;;;;;;;12.20;1.98;;;17.60;1.00;;;;;;5033674;28;20529;-66
2023/05/24 08:19:52;;;;;;;9.13;1.90;;;17.70;1.00;;;;;;5067952;28;20419;-66
2023/05/24 08:22:18;;;;;;;9.75;1.85;;;17.90;99.90;;;;;;5031971;28;20102;-66
2023/05/24 08:24:44;;;;;;;11.65;1.73;;;17.30;99.90;;;;;;5049931;28;20056;-65
2023/05/24 08:27:10;;;;;;;9.60;1.73;;;17.70;1.00;;;;;;5033257;28;20383;-66
2023/05/24 08:29:36;;;;;;;14.20;2.13;;;18.00;99.90;;;;;;5049778;28;20602;-65
2023/05/24 08:32:02;;;;;;;8.27;1.52;;;18.00;99.90;;;;;;5031264;28;20128;-65
2023/05/24 08:34:28;;;;;;;10.52;1.88;;;18.30;99.90;;;;;;5032032;28;20518;-65
2023/05/24 08:36:54;;;;;;;8.10;1.42;;;18.60;99.90;;;;;;5048439;28;21495;-65
2023/05/24 08:39:20;;;;;;;10.50;1.80;;;18.90;99.90;;;;;;5065776;28;20438;-65
2023/05/24 08:41:46;;;;;;;13.18;2.10;;;19.10;99.90;;;;;;5033080;28;20052;-66
2023/05/24 08:44:12;;;;;;;9.50;1.75;;;18.80;99.90;;;;;;5049269;28;20049;-65
2023/05/24 08:46:38;;;;;;;11.40;1.63;;;18.20;99.90;;;;;;5032026;28;20885;-66
2023/05/24 08:49:04;;;;;;;15.82;2.55;;;17.40;99.90;;;;;;5032105;28;20769;-66
2023/05/24 08:51:31;;;;;;;12.43;2.17;;;16.60;99.90;;;;;;5065816;28;20215;-65
2023/05/24 08:54:00;;;;;;;13.70;2.45;;;16.40;99.90;;;;;;5048732;28;20048;-65
2023/05/24 08:56:27;;;;;;;14.35;2.30;;;15.60;1.00;;;;;;5034422;28;20073;-65
2023/05/24 08:58:54;;;;;;;14.07;2.40;;;15.20;1.00;;;;;;5048544;28;20044;-66
2023/05/24 09:01:20;;;;;;;10.25;2.05;;;15.10;63.30;;;;;;5065429;28;20037;-65
2023/05/24 09:03:47;;;;;;;10.70;2.20;;;14.90;99.90;;;;;;5030761;28;20342;-65
2023/05/24 09:06:17;;;;;;;12.40;2.13;;;14.60;99.90;;;;;;5031975;28;20252;-67
2023/05/24 09:08:44;;;;;;;14.25;3.00;;;14.70;99.90;;;;;;5064977;28;20521;-65
2023/05/24 09:11:10;;;;;;;12.88;2.40;;;14.60;99.90;;;;;;5064733;28;20072;-65
2023/05/24 09:13:36;;;;;;;11.50;1.85;;;14.70;99.90;;;;;;5033953;28;20815;-66
2023/05/24 09:16:02;;;;;;;10.68;1.75;;;14.70;99.90;;;;;;5047001;28;20339;-66
2023/05/24 09:18:28;;;;;;;11.32;2.20;;;14.70;99.90;;;;;;5031942;28;20200;-66
2023/05/24 09:20:54;;;;;;;14.57;2.72;;;14.60;99.90;;;;;;5031714;28;20044;-65
2023/05/24 09:23:21;;;;;;;13.45;2.78;;;14.60;99.90;;;;;;5031726;28;20256;-67
2023/05/24 09:25:47;;;;;;;11.35;2.03;;;14.60;99.90;;;;;;5032639;28;20066;-65
2023/05/24 09:28:15;;;;;;;16.17;2.10;;;14.70;99.90;;;;;;5059700;28;20765;-67
2023/05/24 09:30:45;;;;;;;16.05;2.60;;;14.70;99.90;;;;;;5065944;28;20419;-64
2023/05/24 09:33:12;;;;;;;15.63;2.15;;;14.80;99.90;;;;;;5064389;28;20060;-66
2023/05/24 09:35:42;;;;;;;14.15;2.55;;;14.80;99.90;;;;;;5034529;28;20075;-65
2023/05/24 09:38:17;;;;;;;12.85;2.47;;;15.10;99.90;;;;;;5034854;28;20049;-66
2023/05/24 09:40:44;;;;;;;13.85;2.20;;;15.60;99.90;;;;;;5030721;28;20349;-66
2023/05/24 09:43:09;;;;;;;13.48;2.33;;;16.20;99.90;;;;;;5032754;28;20127;-65
2023/05/24 09:45:46;;;;;;;12.00;2.30;;;16.60;99.90;;;;;;5050622;28;20053;-66
2023/05/24 09:48:19;;;;;;;13.25;2.60;;;17.40;90.10;;;;;;5031532;28;20075;-66
2023/05/24 09:51:03;;;;;;;14.27;3.10;;;17.80;10.00;;;;;;5047712;28;20896;-66
2023/05/24 09:53:32;;;;;;;12.68;2.28;;;17.80;1.00;;;;;;5030919;28;20485;-66
2023/05/24 09:55:59;;;;;;;12.27;2.15;;;17.70;1.00;;;;;;5048599;28;20047;-65
2023/05/24 09:58:31;;;;;;;10.25;2.00;;;17.70;1.00;;;;;;5033406;28;20044;-65
2023/05/24 10:01:09;;;;;;;10.93;2.08;;;17.50;1.00;;;;;;5031606;28;20083;-66
2023/05/24 10:03:36;;;;;;;13.98;2.20;;;17.00;1.00;;;;;;5032440;28;20772;-65
2023/05/24 10:06:06;;;;;;;12.75;1.85;;;16.90;1.00;;;;;;5066342;28;20056;-66
2023/05/24 10:08:35;;;;;;;12.07;1.80;;;16.80;1.00;;;;;;5065598;28;20442;-65
2023/05/24 10:11:04;;;;;;;16.15;2.13;;;16.60;8.40;;;;;;5047747;28;20568;-66
2023/05/24 10:13:35;;;;;;;11.40;2.20;;;16.60;84.40;;;;;;5031450;28;20054;-65
2023/05/24 10:16:02;;;;;;;13.18;1.88;;;16.50;99.90;;;;;;5031965;28;20070;-66
2023/05/24 10:18:28;;;;;;;8.65;1.80;;;16.30;99.90;;;;;;5065832;28;20040;-66
2023/05/24 10:20:58;;;;;;;13.60;2.40;;;16.30;99.90;;;;;;5034055;28;20072;-67
2023/05/24 10:23:28;;;;;;;13.10;1.92;;;16.30;90.50;;;;;;5035808;28;20173;-66
2023/05/24 10:26:14;;;;;;;9.90;1.50;;;16.20;99.90;;;;;;5068771;28;20495;-66
2023/05/24 10:28:53;;;;;;;10.05;1.60;;;16.80;99.90;;;;;;5037068;28;20041;-66
2023/05/24 10:31:33;;;;;;;7.68;1.70;;;17.50;99.90;;;;;;5035465;28;20064;-66
2023/05/24 10:34:02;;;;;;;8.20;1.63;;;18.00;64.20;;;;;;5055838;28;20043;-66
2023/05/24 10:36:29;;;;;;;12.30;2.38;;;18.00;1.00;;;;;;5052184;28;20172;-67
2023/05/24 10:38:55;;;;;;;10.15;2.15;;;17.80;1.00;;;;;;5033299;28;20493;-66
2023/05/24 10:41:26;;;;;;;9.23;1.88;;;17.90;1.00;;;;;;5034014;28;20431;-66
2023/05/24 10:43:52;;;;;;;9.80;2.10;;;18.60;99.90;;;;;;5052091;28;20048;-65
2023/05/24 10:46:21;;;;;;;11.98;1.95;;;19.10;99.90;;;;;;5051825;28;20107;-65
2023/05/24 10:49:00;;;;;;;11.10;1.85;;;18.90;99.90;;;;;;5051637;28;20497;-66
2023/05/24 10:51:38;;;;;;;8.13;1.77;;;19.10;99.90;;;;;;5054075;28;20585;-66
2023/05/24 10:54:15;;;;;;;10.20;2.03;;;19.50;99.90;;;;;;5051023;28;20131;-65
2023/05/24 10:56:47;;;;;;;10.60;1.85;;;19.30;99.90;;;;;;5036456;28;20234;-66
2023/05/24 10:59:27;;;;;;;13.50;2.22;;;19.00;99.90;;;;;;5052206;28;20051;-66
2023/05/24 11:02:00;;;;;;;10.18;1.92;;;18.80;99.90;;;;;;5069592;28;20044;-66
2023/05/24 11:04:30;;;;;;;10.93;1.98;;;19.20;99.90;;;;;;5035378;28;20086;-66
2023/05/24 11:07:10;;;;;;;14.95;2.15;;;18.90;99.90;;;;;;5067765;28;20049;-66
2023/05/24 11:09:44;;;;;;;12.52;2.00;;;18.30;99.90;;;;;;5055180;28;20188;-66
2023/05/24 11:12:14;;;;;;;10.90;1.88;;;17.90;99.90;;;;;;5067944;28;20128;-65
2023/05/24 11:14:39;;;;;;;9.15;1.90;;;17.50;99.90;;;;;;5037124;28;20509;-66
2023/05/24 11:17:06;;;;;;;10.65;2.22;;;17.10;1.00;;;;;;5018964;28;20052;-66
2023/05/24 11:19:47;;;;;;;13.68;2.53;;;16.90;1.00;;;;;;5034203;28;20143;-66
2023/05/24 11:22:13;;;;;;;15.13;2.08;;;16.80;15.90;;;;;;5050717;28;20075;-66
2023/05/24 11:24:43;;;;;;;14.60;2.90;;;17.10;5.30;;;;;;5049806;28;20041;-66
2023/05/24 11:27:11;;;;;;;11.40;2.08;;;18.00;20.60;;;;;;5069156;28;20044;-66
2023/05/24 11:29:45;;;;;;;11.35;2.15;;;18.80;1.00;;;;;;5035759;28;20032;-66
2023/05/24 11:32:19;;;;;;;16.98;2.50;;;18.50;99.90;;;;;;5027637;28;20128;-66
2023/05/24 11:34:48;;;;;;;9.30;1.90;;;18.10;99.90;;;;;;5033978;28;20052;-67
2023/05/24 11:37:14;;;;;;;13.40;2.50;;;18.00;1.00;;;;;;5033807;28;20048;-67
2023/05/24 11:39:41;;;;;;;12.90;2.28;;;17.70;1.00;;;;;;5050001;28;20040;-65
2023/05/24 11:42:07;;;;;;;15.75;2.40;;;17.90;1.00;;;;;;5051915;28;20044;-66
2023/05/24 11:44:36;;;;;;;12.00;2.65;;;18.60;1.00;;;;;;5050718;28;20055;-66
2023/05/24 11:47:05;;;;;;;11.48;2.35;;;18.70;1.00;;;;;;5066319;28;20370;-66
2023/05/24 11:49:31;;;;;;;13.73;2.10;;;18.60;99.90;;;;;;5034888;28;20328;-65
2023/05/24 11:51:58;;;;;;;11.57;1.98;;;18.20;99.90;;;;;;5050763;28;20049;-67
2023/05/24 11:54:25;;;;;;;11.55;2.20;;;18.00;99.90;;;;;;5049495;28;20059;-66
2023/05/24 11:56:53;;;;;;;11.07;2.28;;;17.60;1.00;;;;;;5035391;28;20427;-66
2023/05/24 11:59:26;;;;;;;13.60;2.45;;;17.30;10.60;;;;;;5049497;28;20045;-67
2023/05/24 12:02:04;;;;;;;14.32;2.72;;;17.20;1.00;;;;;;5051711;28;20318;-69
2023/05/24 12:04:31;;;;;;;12.80;2.85;;;17.30;1.00;;;;;;5032753;28;20600;-66
2023/05/24 12:06:58;;;;;;;13.32;2.70;;;17.50;1.00;;;;;;5048636;28;20572;-67
2023/05/24 12:09:24;;;;;;;15.52;2.85;;;17.60;1.00;;;;;;5050095;28;20600;-67
2023/05/24 12:11:52;;;;;;;10.05;2.30;;;17.90;1.00;;;;;;5049035;28;20259;-66
2023/05/24 12:14:32;;;;;;;10.68;1.70;;;17.90;1.00;;;;;;5034603;28;20072;-67
2023/05/24 12:16:59;;;;;;;10.60;2.20;;;17.80;99.90;;;;;;5067018;28;20273;-66
2023/05/24 12:19:29;;;;;;;13.52;2.17;;;18.20;1.00;;;;;;5066645;28;20088;-67
2023/05/24 12:21:56;;;;;;;7.03;1.40;;;18.90;99.90;;;;;;5032043;28;20072;-67
2023/05/24 12:24:25;;;;;;;9.73;2.25;;;19.60;99.90;;;;;;5065928;28;20068;-66
2023/05/24 12:26:51;;;;;;;8.57;1.60;;;19.90;99.90;;;;;;5033112;28;20036;-66
2023/05/24 12:29:18;;;;;;;10.95;2.10;;;19.60;99.90;;;;;;5047971;28;20083;-66
2023/05/24 12:31:47;;;;;;;12.13;2.35;;;19.60;99.90;;;;;;5051595;28;20044;-66
2023/05/24 12:34:19;;;;;;;13.65;2.45;;;19.20;99.90;;;;;;5034150;28;20044;-66
2023/05/24 12:36:46;;;;;;;12.82;2.45;;;18.80;99.90;;;;;;5035435;28;20028;-66
2023/05/24 12:39:31;;;;;;;9.73;1.98;;;18.30;99.90;;;;;;5016338;28;20033;-66
2023/05/24 12:41:57;;;;;;;12.50;2.08;;;18.20;99.90;;;;;;5065108;28;20127;-66
2023/05/24 12:44:25;;;;;;;12.00;2.38;;;18.70;99.90;;;;;;5030083;28;20343;-66
2023/05/24 12:46:55;;;;;;;11.38;2.25;;;18.80;99.90;;;;;;5031535;28;20115;-66
2023/05/24 12:49:24;;;;;;;14.30;2.08;;;18.60;99.90;;;;;;5068313;28;20077;-66